sensor_id;sensor_type;location;lat;lon;timestamp;P1;durP1;ratioP1;P2;durP2;ratioP2
58017;SDS011;43810;50.860;19.226;2022-09-12T00:02:11;38.63;;;16.63;;
58017;SDS011;43810;50.860;19.226;2022-09-12T00:04:37;42.58;;;18.25;;
58017;SDS011;43810;50.860;19.226;2022-09-12T00:07:02;39.92;;;15.77;;
58017;SDS011;43810;50.860;19.226;2022-09-12T00:09:28;39.67;;;16.70;;
58017;SDS011;43810;50.860;19.226;2022-09-12T00:11:53;38.63;;;17.17;;
58017;SDS011;43810;50.860;19.226;2022-09-12T00:14:19;37.38;;;17.23;;
58017;SDS011;43810;50.860;19.226;2022-09-12T00:16:44;38.63;;;15.82;;
58017;SDS011;43810;50.860;19.226;2022-09-12T00:19:10;39.75;;;16.92;;
58017;SDS011;43810;50.860;19.226;2022-09-12T00:21:36;38.15;;;17.80;;
58017;SDS011;43810;50.860;19.226;2022-09-12T00:24:02;41.13;;;15.88;;
58017;SDS011;43810;50.860;19.226;2022-09-12T00:26:28;41.45;;;17.75;;
58017;SDS011;43810;50.860;19.226;2022-09-12T00:28:54;43.25;;;16.98;;
58017;SDS011;43810;50.860;19.226;2022-09-12T00:31:21;44.47;;;17.27;;
58017;SDS011;43810;50.860;19.226;2022-09-12T00:33:48;46.80;;;18.60;;
58017;SDS011;43810;50.860;19.226;2022-09-12T00:36:15;41.58;;;18.55;;
58017;SDS011;43810;50.860;19.226;2022-09-12T00:38:41;41.80;;;18.50;;
58017;SDS011;43810;50.860;19.226;2022-09-12T00:41:11;40.22;;;17.80;;
58017;SDS011;43810;50.860;19.226;2022-09-12T00:43:39;39.97;;;18.05;;
58017;SDS011;43810;50.860;19.226;2022-09-12T00:46:06;45.83;;;17.27;;
58017;SDS011;43810;50.860;19.226;2022-09-12T00:48:38;41.30;;;18.00;;
58017;SDS011;43810;50.860;19.226;2022-09-12T00:51:05;44.83;;;18.38;;
58017;SDS011;43810;50.860;19.226;2022-09-12T00:53:30;45.45;;;17.10;;
58017;SDS011;43810;50.860;19.226;2022-09-12T00:55:56;38.35;;;17.83;;
58017;SDS011;43810;50.860;19.226;2022-09-12T00:58:23;41.60;;;18.98;;
58017;SDS011;43810;50.860;19.226;2022-09-12T01:00:49;47.13;;;18.50;;
58017;SDS011;43810;50.860;19.226;2022-09-12T01:03:16;51.22;;;18.90;;
58017;SDS011;43810;50.860;19.226;2022-09-12T01:05:43;49.95;;;18.63;;
58017;SDS011;43810;50.860;19.226;2022-09-12T01:08:12;45.08;;;18.52;;
58017;SDS011;43810;50.860;19.226;2022-09-12T01:10:39;53.92;;;22.48;;
58017;SDS011;43810;50.860;19.226;2022-09-12T01:13:07;45.08;;;18.55;;
58017;SDS011;43810;50.860;19.226;2022-09-12T01:15:35;45.05;;;18.65;;
58017;SDS011;43810;50.860;19.226;2022-09-12T01:18:15;49.65;;;18.58;;
58017;SDS011;43810;50.860;19.226;2022-09-12T01:23:33;48.75;;;19.88;;
58017;SDS011;43810;50.860;19.226;2022-09-12T01:28:58;49.25;;;17.75;;
58017;SDS011;43810;50.860;19.226;2022-09-12T01:31:36;47.10;;;19.20;;
58017;SDS011;43810;50.860;19.226;2022-09-12T01:36:33;43.10;;;17.58;;
58017;SDS011;43810;50.860;19.226;2022-09-12T01:39:10;44.75;;;17.42;;
58017;SDS011;43810;50.860;19.226;2022-09-12T01:41:47;39.55;;;18.65;;
58017;SDS011;43810;50.860;19.226;2022-09-12T01:47:04;47.13;;;18.48;;
58017;SDS011;43810;50.860;19.226;2022-09-12T01:49:39;41.88;;;18.23;;
58017;SDS011;43810;50.860;19.226;2022-09-12T01:54:48;47.28;;;19.58;;
58017;SDS011;43810;50.860;19.226;2022-09-12T01:57:17;48.80;;;20.05;;
58017;SDS011;43810;50.860;19.226;2022-09-12T01:59:45;47.35;;;18.98;;
58017;SDS011;43810;50.860;19.226;2022-09-12T02:02:17;49.55;;;19.17;;
58017;SDS011;43810;50.860;19.226;2022-09-12T02:10:04;63.78;;;20.67;;
58017;SDS011;43810;50.860;19.226;2022-09-12T02:12:33;49.10;;;19.95;;
58017;SDS011;43810;50.860;19.226;2022-09-12T02:15:01;50.33;;;19.10;;
58017;SDS011;43810;50.860;19.226;2022-09-12T02:17:28;48.60;;;19.27;;
58017;SDS011;43810;50.860;19.226;2022-09-12T02:19:57;47.78;;;20.35;;
58017;SDS011;43810;50.860;19.226;2022-09-12T02:22:25;49.30;;;19.52;;
58017;SDS011;43810;50.860;19.226;2022-09-12T02:24:53;43.88;;;18.92;;
58017;SDS011;43810;50.860;19.226;2022-09-12T02:27:23;48.53;;;18.77;;
58017;SDS011;43810;50.860;19.226;2022-09-12T02:29:49;48.90;;;19.20;;
58017;SDS011;43810;50.860;19.226;2022-09-12T02:34:51;52.80;;;20.65;;
58017;SDS011;43810;50.860;19.226;2022-09-12T02:39:53;58.00;;;21.40;;
58017;SDS011;43810;50.860;19.226;2022-09-12T02:42:19;57.20;;;21.08;;
58017;SDS011;43810;50.860;19.226;2022-09-12T02:44:45;54.55;;;19.35;;
58017;SDS011;43810;50.860;19.226;2022-09-12T02:47:16;50.67;;;21.25;;
58017;SDS011;43810;50.860;19.226;2022-09-12T02:49:42;48.75;;;20.38;;
58017;SDS011;43810;50.860;19.226;2022-09-12T02:52:08;54.55;;;20.23;;
58017;SDS011;43810;50.860;19.226;2022-09-12T02:54:33;58.40;;;20.50;;
58017;SDS011;43810;50.860;19.226;2022-09-12T02:56:59;48.58;;;19.08;;
58017;SDS011;43810;50.860;19.226;2022-09-12T02:59:25;50.30;;;19.45;;
58017;SDS011;43810;50.860;19.226;2022-09-12T03:08:04;52.70;;;21.17;;
58017;SDS011;43810;50.860;19.226;2022-09-12T03:20:44;51.08;;;20.77;;
58017;SDS011;43810;50.860;19.226;2022-09-12T03:23:15;61.33;;;22.58;;
58017;SDS011;43810;50.860;19.226;2022-09-12T03:25:46;46.03;;;20.13;;
58017;SDS011;43810;50.860;19.226;2022-09-12T03:28:13;50.55;;;19.90;;
58017;SDS011;43810;50.860;19.226;2022-09-12T03:30:40;53.38;;;20.20;;
58017;SDS011;43810;50.860;19.226;2022-09-12T03:33:09;55.45;;;20.45;;
58017;SDS011;43810;50.860;19.226;2022-09-12T03:35:35;61.45;;;21.60;;
58017;SDS011;43810;50.860;19.226;2022-09-12T03:38:00;60.10;;;23.38;;
58017;SDS011;43810;50.860;19.226;2022-09-12T03:40:26;53.22;;;19.95;;
58017;SDS011;43810;50.860;19.226;2022-09-12T03:42:51;55.53;;;20.05;;
58017;SDS011;43810;50.860;19.226;2022-09-12T03:45:17;53.60;;;20.17;;
58017;SDS011;43810;50.860;19.226;2022-09-12T03:47:43;54.22;;;20.92;;
58017;SDS011;43810;50.860;19.226;2022-09-12T03:50:09;48.60;;;19.42;;
58017;SDS011;43810;50.860;19.226;2022-09-12T03:52:34;54.50;;;20.70;;
58017;SDS011;43810;50.860;19.226;2022-09-12T03:55:00;55.33;;;21.42;;
58017;SDS011;43810;50.860;19.226;2022-09-12T03:57:26;58.63;;;21.65;;
58017;SDS011;43810;50.860;19.226;2022-09-12T03:59:51;57.25;;;22.30;;
58017;SDS011;43810;50.860;19.226;2022-09-12T04:02:17;60.33;;;21.38;;
58017;SDS011;43810;50.860;19.226;2022-09-12T04:04:42;62.25;;;21.83;;
58017;SDS011;43810;50.860;19.226;2022-09-12T04:07:09;64.10;;;22.98;;
58017;SDS011;43810;50.860;19.226;2022-09-12T04:09:34;57.42;;;22.55;;
58017;SDS011;43810;50.860;19.226;2022-09-12T04:12:00;54.28;;;20.85;;
58017;SDS011;43810;50.860;19.226;2022-09-12T04:14:25;51.60;;;20.40;;
58017;SDS011;43810;50.860;19.226;2022-09-12T04:16:51;50.30;;;21.30;;
58017;SDS011;43810;50.860;19.226;2022-09-12T04:19:17;61.22;;;21.20;;
58017;SDS011;43810;50.860;19.226;2022-09-12T04:21:42;59.55;;;22.58;;
58017;SDS011;43810;50.860;19.226;2022-09-12T04:24:08;65.32;;;23.50;;
58017;SDS011;43810;50.860;19.226;2022-09-12T04:26:34;92.22;;;29.50;;
58017;SDS011;43810;50.860;19.226;2022-09-12T04:28:59;81.25;;;23.63;;
58017;SDS011;43810;50.860;19.226;2022-09-12T04:31:25;60.00;;;21.73;;
58017;SDS011;43810;50.860;19.226;2022-09-12T04:33:54;52.92;;;21.48;;
58017;SDS011;43810;50.860;19.226;2022-09-12T04:36:20;63.83;;;22.50;;
58017;SDS011;43810;50.860;19.226;2022-09-12T04:38:47;69.18;;;23.65;;
58017;SDS011;43810;50.860;19.226;2022-09-12T04:41:14;60.88;;;23.73;;
58017;SDS011;43810;50.860;19.226;2022-09-12T04:43:40;66.80;;;25.05;;
58017;SDS011;43810;50.860;19.226;2022-09-12T04:46:06;58.72;;;24.17;;
58017;SDS011;43810;50.860;19.226;2022-09-12T04:48:32;71.60;;;23.63;;
58017;SDS011;43810;50.860;19.226;2022-09-12T04:53:39;60.95;;;23.58;;
58017;SDS011;43810;50.860;19.226;2022-09-12T04:56:06;54.90;;;23.13;;
58017;SDS011;43810;50.860;19.226;2022-09-12T04:58:32;68.60;;;25.05;;
58017;SDS011;43810;50.860;19.226;2022-09-12T05:03:33;73.55;;;25.17;;
58017;SDS011;43810;50.860;19.226;2022-09-12T05:06:03;65.35;;;24.42;;
58017;SDS011;43810;50.860;19.226;2022-09-12T05:08:29;71.30;;;25.42;;
58017;SDS011;43810;50.860;19.226;2022-09-12T05:10:54;77.72;;;25.90;;
58017;SDS011;43810;50.860;19.226;2022-09-12T05:13:20;64.65;;;25.02;;
58017;SDS011;43810;50.860;19.226;2022-09-12T05:15:53;75.82;;;25.58;;
58017;SDS011;43810;50.860;19.226;2022-09-12T05:18:18;78.38;;;25.55;;
58017;SDS011;43810;50.860;19.226;2022-09-12T05:20:44;70.93;;;27.35;;
58017;SDS011;43810;50.860;19.226;2022-09-12T05:23:09;74.55;;;26.55;;
58017;SDS011;43810;50.860;19.226;2022-09-12T05:25:35;72.72;;;25.15;;
58017;SDS011;43810;50.860;19.226;2022-09-12T05:28:00;69.93;;;25.67;;
58017;SDS011;43810;50.860;19.226;2022-09-12T05:30:26;69.45;;;25.35;;
58017;SDS011;43810;50.860;19.226;2022-09-12T05:32:51;85.32;;;28.17;;
58017;SDS011;43810;50.860;19.226;2022-09-12T05:35:17;78.65;;;27.42;;
58017;SDS011;43810;50.860;19.226;2022-09-12T05:37:42;70.13;;;26.77;;
58017;SDS011;43810;50.860;19.226;2022-09-12T05:40:08;72.60;;;27.23;;
58017;SDS011;43810;50.860;19.226;2022-09-12T05:42:34;78.25;;;27.45;;
58017;SDS011;43810;50.860;19.226;2022-09-12T05:45:01;78.15;;;26.55;;
58017;SDS011;43810;50.860;19.226;2022-09-12T05:47:26;72.13;;;27.02;;
58017;SDS011;43810;50.860;19.226;2022-09-12T05:49:52;83.60;;;29.45;;
58017;SDS011;43810;50.860;19.226;2022-09-12T05:52:17;72.85;;;27.52;;
58017;SDS011;43810;50.860;19.226;2022-09-12T05:54:43;75.97;;;27.83;;
58017;SDS011;43810;50.860;19.226;2022-09-12T05:57:09;73.03;;;27.70;;
58017;SDS011;43810;50.860;19.226;2022-09-12T05:59:34;73.32;;;27.67;;
58017;SDS011;43810;50.860;19.226;2022-09-12T06:02:00;67.75;;;26.52;;
58017;SDS011;43810;50.860;19.226;2022-09-12T06:04:25;60.63;;;26.38;;
58017;SDS011;43810;50.860;19.226;2022-09-12T06:06:52;60.28;;;25.40;;
58017;SDS011;43810;50.860;19.226;2022-09-12T06:09:17;60.45;;;25.05;;
58017;SDS011;43810;50.860;19.226;2022-09-12T06:11:44;56.63;;;24.25;;
58017;SDS011;43810;50.860;19.226;2022-09-12T06:14:10;55.70;;;21.27;;
58017;SDS011;43810;50.860;19.226;2022-09-12T06:16:36;49.92;;;21.05;;
58017;SDS011;43810;50.860;19.226;2022-09-12T06:19:06;45.13;;;20.25;;
58017;SDS011;43810;50.860;19.226;2022-09-12T06:21:31;39.08;;;18.42;;
58017;SDS011;43810;50.860;19.226;2022-09-12T06:23:58;41.38;;;18.67;;
58017;SDS011;43810;50.860;19.226;2022-09-12T06:26:24;33.78;;;15.93;;
58017;SDS011;43810;50.860;19.226;2022-09-12T06:28:50;34.40;;;16.25;;
58017;SDS011;43810;50.860;19.226;2022-09-12T06:31:20;26.38;;;15.00;;
58017;SDS011;43810;50.860;19.226;2022-09-12T06:33:47;23.83;;;12.90;;
58017;SDS011;43810;50.860;19.226;2022-09-12T06:36:20;19.60;;;11.32;;
58017;SDS011;43810;50.860;19.226;2022-09-12T06:38:47;14.02;;;9.80;;
58017;SDS011;43810;50.860;19.226;2022-09-12T06:41:15;16.77;;;9.15;;
58017;SDS011;43810;50.860;19.226;2022-09-12T06:43:40;13.70;;;8.85;;
58017;SDS011;43810;50.860;19.226;2022-09-12T06:46:07;12.32;;;7.40;;
58017;SDS011;43810;50.860;19.226;2022-09-12T06:48:33;13.70;;;7.72;;
58017;SDS011;43810;50.860;19.226;2022-09-12T06:51:03;11.20;;;7.20;;
58017;SDS011;43810;50.860;19.226;2022-09-12T06:53:29;10.48;;;6.88;;
58017;SDS011;43810;50.860;19.226;2022-09-12T06:56:01;10.98;;;6.90;;
58017;SDS011;43810;50.860;19.226;2022-09-12T06:58:27;9.15;;;6.05;;
58017;SDS011;43810;50.860;19.226;2022-09-12T07:01:03;6.53;;;5.20;;
58017;SDS011;43810;50.860;19.226;2022-09-12T07:03:29;6.88;;;4.50;;
58017;SDS011;43810;50.860;19.226;2022-09-12T07:05:55;6.55;;;4.95;;
58017;SDS011;43810;50.860;19.226;2022-09-12T07:08:20;8.60;;;5.47;;
58017;SDS011;43810;50.860;19.226;2022-09-12T07:10:46;9.52;;;4.80;;
58017;SDS011;43810;50.860;19.226;2022-09-12T07:13:11;9.70;;;4.88;;
58017;SDS011;43810;50.860;19.226;2022-09-12T07:15:38;7.40;;;5.10;;
58017;SDS011;43810;50.860;19.226;2022-09-12T07:18:04;8.35;;;5.25;;
58017;SDS011;43810;50.860;19.226;2022-09-12T07:20:29;8.23;;;4.43;;
58017;SDS011;43810;50.860;19.226;2022-09-12T07:22:57;9.10;;;3.80;;
58017;SDS011;43810;50.860;19.226;2022-09-12T07:25:23;5.70;;;3.55;;
58017;SDS011;43810;50.860;19.226;2022-09-12T07:27:48;9.82;;;4.20;;
58017;SDS011;43810;50.860;19.226;2022-09-12T07:30:14;6.10;;;3.55;;
58017;SDS011;43810;50.860;19.226;2022-09-12T07:32:40;4.13;;;3.05;;
58017;SDS011;43810;50.860;19.226;2022-09-12T07:35:06;5.05;;;3.30;;
58017;SDS011;43810;50.860;19.226;2022-09-12T07:37:31;9.38;;;3.47;;
58017;SDS011;43810;50.860;19.226;2022-09-12T07:39:57;11.40;;;3.28;;
58017;SDS011;43810;50.860;19.226;2022-09-12T07:42:24;5.35;;;3.25;;
58017;SDS011;43810;50.860;19.226;2022-09-12T07:44:49;5.50;;;4.07;;
58017;SDS011;43810;50.860;19.226;2022-09-12T07:47:16;7.00;;;2.83;;
58017;SDS011;43810;50.860;19.226;2022-09-12T07:49:42;3.15;;;2.15;;
58017;SDS011;43810;50.860;19.226;2022-09-12T07:52:08;4.90;;;2.63;;
58017;SDS011;43810;50.860;19.226;2022-09-12T07:54:33;4.90;;;2.25;;
58017;SDS011;43810;50.860;19.226;2022-09-12T07:56:59;3.70;;;2.78;;
58017;SDS011;43810;50.860;19.226;2022-09-12T07:59:24;4.93;;;2.80;;
58017;SDS011;43810;50.860;19.226;2022-09-12T08:01:50;4.90;;;2.35;;
58017;SDS011;43810;50.860;19.226;2022-09-12T08:04:16;4.07;;;1.77;;
58017;SDS011;43810;50.860;19.226;2022-09-12T08:06:41;4.22;;;2.67;;
58017;SDS011;43810;50.860;19.226;2022-09-12T08:09:07;6.38;;;2.10;;
58017;SDS011;43810;50.860;19.226;2022-09-12T08:11:33;4.75;;;1.77;;
58017;SDS011;43810;50.860;19.226;2022-09-12T08:13:59;2.78;;;2.00;;
58017;SDS011;43810;50.860;19.226;2022-09-12T08:16:28;4.65;;;1.90;;
58017;SDS011;43810;50.860;19.226;2022-09-12T08:18:55;7.28;;;1.98;;
58017;SDS011;43810;50.860;19.226;2022-09-12T08:21:24;1.83;;;1.65;;
58017;SDS011;43810;50.860;19.226;2022-09-12T08:23:52;3.80;;;1.70;;
58017;SDS011;43810;50.860;19.226;2022-09-12T08:26:18;6.30;;;2.30;;
58017;SDS011;43810;50.860;19.226;2022-09-12T08:28:44;6.38;;;2.20;;
58017;SDS011;43810;50.860;19.226;2022-09-12T08:31:11;15.32;;;3.70;;
58017;SDS011;43810;50.860;19.226;2022-09-12T08:33:37;11.27;;;4.40;;
58017;SDS011;43810;50.860;19.226;2022-09-12T08:36:06;9.02;;;3.72;;
58017;SDS011;43810;50.860;19.226;2022-09-12T08:38:33;3.00;;;2.28;;
58017;SDS011;43810;50.860;19.226;2022-09-12T08:41:01;8.27;;;2.67;;
58017;SDS011;43810;50.860;19.226;2022-09-12T08:43:31;5.95;;;2.70;;
58017;SDS011;43810;50.860;19.226;2022-09-12T08:46:01;7.50;;;3.42;;
58017;SDS011;43810;50.860;19.226;2022-09-12T08:48:28;5.30;;;2.80;;
58017;SDS011;43810;50.860;19.226;2022-09-12T08:50:54;2.30;;;1.98;;
58017;SDS011;43810;50.860;19.226;2022-09-12T08:53:20;3.80;;;1.80;;
58017;SDS011;43810;50.860;19.226;2022-09-12T08:56:20;3.20;;;1.90;;
58017;SDS011;43810;50.860;19.226;2022-09-12T08:58:41;3.13;;;2.10;;
58017;SDS011;43810;50.860;19.226;2022-09-12T09:14:13;3.60;;;1.85;;
58017;SDS011;43810;50.860;19.226;2022-09-12T09:17:00;5.75;;;1.85;;
58017;SDS011;43810;50.860;19.226;2022-09-12T09:19:28;3.90;;;2.00;;
58017;SDS011;43810;50.860;19.226;2022-09-12T09:21:58;6.03;;;2.10;;
58017;SDS011;43810;50.860;19.226;2022-09-12T09:24:26;2.42;;;1.50;;
58017;SDS011;43810;50.860;19.226;2022-09-12T09:26:57;2.95;;;2.30;;
58017;SDS011;43810;50.860;19.226;2022-09-12T09:29:23;2.22;;;1.67;;
58017;SDS011;43810;50.860;19.226;2022-09-12T09:31:51;3.13;;;2.33;;
58017;SDS011;43810;50.860;19.226;2022-09-12T09:34:18;4.45;;;1.95;;
58017;SDS011;43810;50.860;19.226;2022-09-12T09:36:51;4.72;;;1.92;;
58017;SDS011;43810;50.860;19.226;2022-09-12T09:42:10;5.28;;;1.80;;
58017;SDS011;43810;50.860;19.226;2022-09-12T09:44:37;2.75;;;2.20;;
58017;SDS011;43810;50.860;19.226;2022-09-12T09:47:03;3.00;;;1.88;;
58017;SDS011;43810;50.860;19.226;2022-09-12T09:49:30;5.93;;;2.58;;
58017;SDS011;43810;50.860;19.226;2022-09-12T09:51:58;2.65;;;2.05;;
58017;SDS011;43810;50.860;19.226;2022-09-12T09:54:26;3.80;;;2.10;;
58017;SDS011;43810;50.860;19.226;2022-09-12T09:56:54;2.50;;;1.77;;
58017;SDS011;43810;50.860;19.226;2022-09-12T09:59:27;2.33;;;1.67;;
58017;SDS011;43810;50.860;19.226;2022-09-12T10:04:20;3.13;;;1.63;;
58017;SDS011;43810;50.860;19.226;2022-09-12T10:06:46;5.78;;;2.53;;
58017;SDS011;43810;50.860;19.226;2022-09-12T10:09:22;3.58;;;2.17;;
58017;SDS011;43810;50.860;19.226;2022-09-12T10:11:48;5.50;;;2.90;;
58017;SDS011;43810;50.860;19.226;2022-09-12T10:14:28;1.75;;;1.42;;
58017;SDS011;43810;50.860;19.226;2022-09-12T10:16:54;5.95;;;2.20;;
58017;SDS011;43810;50.860;19.226;2022-09-12T10:19:22;4.30;;;1.48;;
58017;SDS011;43810;50.860;19.226;2022-09-12T10:21:52;1.73;;;1.50;;
58017;SDS011;43810;50.860;19.226;2022-09-12T10:24:23;3.33;;;1.50;;
58017;SDS011;43810;50.860;19.226;2022-09-12T10:26:51;3.05;;;1.75;;
58017;SDS011;43810;50.860;19.226;2022-09-12T10:29:23;3.72;;;1.50;;
58017;SDS011;43810;50.860;19.226;2022-09-12T10:31:51;4.85;;;1.60;;
58017;SDS011;43810;50.860;19.226;2022-09-12T10:34:20;2.50;;;1.70;;
58017;SDS011;43810;50.860;19.226;2022-09-12T10:36:46;2.53;;;1.45;;
58017;SDS011;43810;50.860;19.226;2022-09-12T10:39:16;2.30;;;1.40;;
58017;SDS011;43810;50.860;19.226;2022-09-12T10:41:42;4.32;;;1.40;;
58017;SDS011;43810;50.860;19.226;2022-09-12T10:44:16;2.50;;;1.20;;
58017;SDS011;43810;50.860;19.226;2022-09-12T10:46:45;2.08;;;1.27;;
58017;SDS011;43810;50.860;19.226;2022-09-12T10:51:46;3.35;;;1.77;;
58017;SDS011;43810;50.860;19.226;2022-09-12T10:54:13;4.93;;;1.77;;
58017;SDS011;43810;50.860;19.226;2022-09-12T11:11:57;3.88;;;1.50;;
58017;SDS011;43810;50.860;19.226;2022-09-12T11:27:06;3.58;;;2.63;;
58017;SDS011;43810;50.860;19.226;2022-09-12T11:29:40;3.80;;;2.15;;
58017;SDS011;43810;50.860;19.226;2022-09-12T11:38:31;6.90;;;1.33;;
58017;SDS011;43810;50.860;19.226;2022-09-12T11:40:46;4.10;;;2.00;;
58017;SDS011;43810;50.860;19.226;2022-09-12T11:48:42;1.90;;;1.33;;
58017;SDS011;43810;50.860;19.226;2022-09-12T11:51:19;2.67;;;1.63;;
58017;SDS011;43810;50.860;19.226;2022-09-12T11:53:46;4.70;;;1.40;;
58017;SDS011;43810;50.860;19.226;2022-09-12T11:56:17;5.50;;;1.80;;
58017;SDS011;43810;50.860;19.226;2022-09-12T11:58:43;3.42;;;2.13;;
58017;SDS011;43810;50.860;19.226;2022-09-12T12:01:17;5.90;;;2.42;;
58017;SDS011;43810;50.860;19.226;2022-09-12T12:03:45;4.90;;;1.80;;
58017;SDS011;43810;50.860;19.226;2022-09-12T12:06:16;2.65;;;1.50;;
58017;SDS011;43810;50.860;19.226;2022-09-12T12:08:43;3.08;;;1.63;;
58017;SDS011;43810;50.860;19.226;2022-09-12T12:11:11;2.72;;;1.63;;
58017;SDS011;43810;50.860;19.226;2022-09-12T12:13:44;4.30;;;1.60;;
58017;SDS011;43810;50.860;19.226;2022-09-12T12:16:21;2.95;;;1.63;;
58017;SDS011;43810;50.860;19.226;2022-09-12T12:19:01;2.75;;;1.65;;
58017;SDS011;43810;50.860;19.226;2022-09-12T12:24:09;4.68;;;1.70;;
58017;SDS011;43810;50.860;19.226;2022-09-12T12:31:46;2.28;;;1.45;;
58017;SDS011;43810;50.860;19.226;2022-09-12T12:40:06;2.67;;;1.52;;
58017;SDS011;43810;50.860;19.226;2022-09-12T12:45:02;3.60;;;2.20;;
58017;SDS011;43810;50.860;19.226;2022-09-12T12:52:50;3.15;;;1.65;;
58017;SDS011;43810;50.860;19.226;2022-09-12T12:55:30;2.08;;;1.38;;
58017;SDS011;43810;50.860;19.226;2022-09-12T12:57:59;2.78;;;1.60;;
58017;SDS011;43810;50.860;19.226;2022-09-12T13:00:35;2.22;;;1.65;;
58017;SDS011;43810;50.860;19.226;2022-09-12T13:05:40;4.05;;;2.08;;
58017;SDS011;43810;50.860;19.226;2022-09-12T13:10:34;3.20;;;1.65;;
58017;SDS011;43810;50.860;19.226;2022-09-12T13:13:00;3.25;;;1.88;;
58017;SDS011;43810;50.860;19.226;2022-09-12T13:18:12;2.03;;;1.70;;
58017;SDS011;43810;50.860;19.226;2022-09-12T13:20:46;2.75;;;1.83;;
58017;SDS011;43810;50.860;19.226;2022-09-12T13:23:22;3.67;;;1.65;;
58017;SDS011;43810;50.860;19.226;2022-09-12T13:25:55;2.60;;;1.80;;
58017;SDS011;43810;50.860;19.226;2022-09-12T13:28:23;2.83;;;1.58;;
58017;SDS011;43810;50.860;19.226;2022-09-12T13:36:29;5.25;;;1.80;;
58017;SDS011;43810;50.860;19.226;2022-09-12T13:43:36;2.95;;;1.60;;
58017;SDS011;43810;50.860;19.226;2022-09-12T13:46:02;2.00;;;1.80;;
58017;SDS011;43810;50.860;19.226;2022-09-12T13:48:28;3.72;;;2.75;;
58017;SDS011;43810;50.860;19.226;2022-09-12T13:50:55;4.15;;;2.22;;
58017;SDS011;43810;50.860;19.226;2022-09-12T13:53:22;2.85;;;2.00;;
58017;SDS011;43810;50.860;19.226;2022-09-12T13:55:51;2.65;;;1.70;;
58017;SDS011;43810;50.860;19.226;2022-09-12T13:58:28;8.82;;;1.77;;
58017;SDS011;43810;50.860;19.226;2022-09-12T14:03:26;3.33;;;2.20;;
58017;SDS011;43810;50.860;19.226;2022-09-12T14:06:11;2.85;;;2.20;;
58017;SDS011;43810;50.860;19.226;2022-09-12T14:08:40;3.65;;;2.15;;
58017;SDS011;43810;50.860;19.226;2022-09-12T14:11:07;3.25;;;1.52;;
58017;SDS011;43810;50.860;19.226;2022-09-12T14:13:33;1.75;;;1.58;;
58017;SDS011;43810;50.860;19.226;2022-09-12T14:16:00;2.70;;;1.40;;
58017;SDS011;43810;50.860;19.226;2022-09-12T14:18:27;2.28;;;1.23;;
58017;SDS011;43810;50.860;19.226;2022-09-12T14:20:53;3.67;;;2.30;;
58017;SDS011;43810;50.860;19.226;2022-09-12T14:23:28;5.65;;;3.28;;
58017;SDS011;43810;50.860;19.226;2022-09-12T14:25:55;2.28;;;2.08;;
58017;SDS011;43810;50.860;19.226;2022-09-12T14:28:21;5.18;;;1.90;;
58017;SDS011;43810;50.860;19.226;2022-09-12T14:31:03;6.57;;;2.08;;
58017;SDS011;43810;50.860;19.226;2022-09-12T14:33:32;3.03;;;1.75;;
58017;SDS011;43810;50.860;19.226;2022-09-12T14:38:43;4.70;;;2.05;;
58017;SDS011;43810;50.860;19.226;2022-09-12T14:41:12;4.85;;;2.08;;
58017;SDS011;43810;50.860;19.226;2022-09-12T14:43:45;2.92;;;1.60;;
58017;SDS011;43810;50.860;19.226;2022-09-12T14:46:16;4.50;;;1.90;;
58017;SDS011;43810;50.860;19.226;2022-09-12T14:48:50;2.13;;;1.50;;
58017;SDS011;43810;50.860;19.226;2022-09-12T14:53:46;2.70;;;2.28;;
58017;SDS011;43810;50.860;19.226;2022-09-12T14:56:12;2.85;;;2.22;;
58017;SDS011;43810;50.860;19.226;2022-09-12T14:58:39;2.17;;;1.40;;
58017;SDS011;43810;50.860;19.226;2022-09-12T15:03:31;2.20;;;1.33;;
58017;SDS011;43810;50.860;19.226;2022-09-12T15:05:57;3.97;;;1.83;;
58017;SDS011;43810;50.860;19.226;2022-09-12T15:08:23;3.95;;;1.58;;
58017;SDS011;43810;50.860;19.226;2022-09-12T15:10:49;2.08;;;1.30;;
58017;SDS011;43810;50.860;19.226;2022-09-12T15:13:16;2.10;;;1.73;;
58017;SDS011;43810;50.860;19.226;2022-09-12T15:15:44;2.63;;;1.60;;
58017;SDS011;43810;50.860;19.226;2022-09-12T15:18:10;4.38;;;2.03;;
58017;SDS011;43810;50.860;19.226;2022-09-12T15:20:37;2.00;;;1.67;;
58017;SDS011;43810;50.860;19.226;2022-09-12T15:23:03;3.30;;;2.10;;
58017;SDS011;43810;50.860;19.226;2022-09-12T15:25:29;5.13;;;2.00;;
58017;SDS011;43810;50.860;19.226;2022-09-12T15:27:55;3.60;;;1.60;;
58017;SDS011;43810;50.860;19.226;2022-09-12T15:30:20;1.45;;;1.33;;
58017;SDS011;43810;50.860;19.226;2022-09-12T15:32:46;3.47;;;1.73;;
58017;SDS011;43810;50.860;19.226;2022-09-12T15:35:19;3.15;;;1.60;;
58017;SDS011;43810;50.860;19.226;2022-09-12T15:37:47;5.55;;;2.63;;
58017;SDS011;43810;50.860;19.226;2022-09-12T15:40:13;4.18;;;1.90;;
58017;SDS011;43810;50.860;19.226;2022-09-12T15:42:39;2.78;;;2.17;;
58017;SDS011;43810;50.860;19.226;2022-09-12T15:47:49;2.47;;;1.65;;
58017;SDS011;43810;50.860;19.226;2022-09-12T15:50:15;3.25;;;1.88;;
58017;SDS011;43810;50.860;19.226;2022-09-12T15:52:40;3.60;;;2.05;;
58017;SDS011;43810;50.860;19.226;2022-09-12T15:55:16;3.40;;;1.92;;
58017;SDS011;43810;50.860;19.226;2022-09-12T15:57:42;3.78;;;2.53;;
58017;SDS011;43810;50.860;19.226;2022-09-12T16:00:08;2.95;;;2.35;;
58017;SDS011;43810;50.860;19.226;2022-09-12T16:02:34;4.68;;;1.80;;
58017;SDS011;43810;50.860;19.226;2022-09-12T16:05:00;4.00;;;1.90;;
58017;SDS011;43810;50.860;19.226;2022-09-12T16:07:25;4.10;;;2.30;;
58017;SDS011;43810;50.860;19.226;2022-09-12T16:09:51;5.38;;;2.50;;
58017;SDS011;43810;50.860;19.226;2022-09-12T16:12:16;5.75;;;1.88;;
58017;SDS011;43810;50.860;19.226;2022-09-12T16:14:42;5.95;;;2.80;;
58017;SDS011;43810;50.860;19.226;2022-09-12T16:17:08;14.18;;;5.65;;
58017;SDS011;43810;50.860;19.226;2022-09-12T16:19:34;7.28;;;4.10;;
58017;SDS011;43810;50.860;19.226;2022-09-12T16:22:00;8.93;;;4.00;;
58017;SDS011;43810;50.860;19.226;2022-09-12T16:24:25;29.95;;;5.70;;
58017;SDS011;43810;50.860;19.226;2022-09-12T16:26:51;3.92;;;2.60;;
58017;SDS011;43810;50.860;19.226;2022-09-12T16:29:16;4.85;;;2.17;;
58017;SDS011;43810;50.860;19.226;2022-09-12T16:31:42;3.40;;;2.55;;
58017;SDS011;43810;50.860;19.226;2022-09-12T16:34:09;3.88;;;3.00;;
58017;SDS011;43810;50.860;19.226;2022-09-12T16:36:35;5.82;;;3.22;;
58017;SDS011;43810;50.860;19.226;2022-09-12T16:39:00;6.28;;;3.58;;
58017;SDS011;43810;50.860;19.226;2022-09-12T16:41:26;5.60;;;3.53;;
58017;SDS011;43810;50.860;19.226;2022-09-12T16:43:52;7.07;;;4.43;;
58017;SDS011;43810;50.860;19.226;2022-09-12T16:46:21;6.55;;;4.40;;
58017;SDS011;43810;50.860;19.226;2022-09-12T16:48:51;11.25;;;6.20;;
58017;SDS011;43810;50.860;19.226;2022-09-12T16:51:18;20.45;;;10.57;;
58017;SDS011;43810;50.860;19.226;2022-09-12T16:53:45;30.75;;;14.40;;
58017;SDS011;43810;50.860;19.226;2022-09-12T16:56:10;20.88;;;10.85;;
58017;SDS011;43810;50.860;19.226;2022-09-12T16:58:37;23.10;;;11.85;;
58017;SDS011;43810;50.860;19.226;2022-09-12T17:01:04;24.92;;;13.02;;
58017;SDS011;43810;50.860;19.226;2022-09-12T17:03:30;16.73;;;8.52;;
58017;SDS011;43810;50.860;19.226;2022-09-12T17:06:00;19.35;;;10.30;;